Time;durP1;ratioP1;P1;durP2;ratioP2;P2;SDS_P1;SDS_P2;PMS_P1;PMS_P2;Temp;Humidity;BMP_temperature;BMP_pressure;BME280_temperature;BME280_humidity;BME280_pressure;Samples;Min_cycle;Max_cycle;Signal;HPM_P1;HPM_P2
2023/07/15 00:01:34;;;;;;;0.20;0.20;;;;;;;14.96;100.00;99103.13;4965462;28;20549;-76
2023/07/15 00:04:02;;;;;;;0.20;0.20;;;;;;;14.96;100.00;99108.63;4982964;28;20054;-76
2023/07/15 00:06:29;;;;;;;0.20;0.20;;;;;;;14.97;100.00;99107.50;4982918;28;20050;-76
2023/07/15 00:08:56;;;;;;;0.20;0.20;;;;;;;15.02;100.00;99112.88;4976371;28;20054;-76
2023/07/15 00:11:26;;;;;;;0.20;0.20;;;;;;;15.06;100.00;99104.75;4972161;28;20049;-76
2023/07/15 00:13:53;;;;;;;0.20;0.20;;;;;;;15.05;100.00;99097.63;4982663;28;20474;-76
2023/07/15 00:16:19;;;;;;;0.20;0.20;;;;;;;15.03;100.00;99101.53;4948873;28;20336;-75
2023/07/15 00:18:45;;;;;;;0.20;0.20;;;;;;;15.05;100.00;99105.88;4983296;28;20054;-76
2023/07/15 00:21:20;;;;;;;0.20;0.20;;;;;;;15.07;100.00;99107.19;4998694;28;20141;-75
2023/07/15 00:23:48;;;;;;;0.20;0.20;;;;;;;15.10;100.00;99108.50;4984174;28;20140;-75
2023/07/15 00:26:15;;;;;;;0.20;0.20;;;;;;;15.08;100.00;99097.81;4982891;28;20050;-75
2023/07/15 00:28:41;;;;;;;0.20;0.20;;;;;;;15.09;100.00;99109.66;4950347;28;20458;-75
2023/07/15 00:31:13;;;;;;;0.20;0.20;;;;;;;15.09;100.00;99101.38;4984218;28;20307;-75
2023/07/15 00:33:40;;;;;;;0.20;0.20;;;;;;;15.13;100.00;99114.16;4984386;28;20050;-74
2023/07/15 00:36:06;;;;;;;0.20;0.20;;;;;;;15.12;100.00;99100.72;4987023;28;20054;-76
2023/07/15 00:38:34;;;;;;;0.20;0.20;;;;;;;15.14;100.00;99104.78;4961702;28;20062;-75
2023/07/15 00:41:01;;;;;;;0.20;0.20;;;;;;;15.15;100.00;99098.16;4952810;28;20050;-75
2023/07/15 00:43:54;;;;;;;0.20;0.20;;;;;;;15.15;100.00;99095.41;4982583;28;20530;-76
2023/07/15 00:46:45;;;;;;;0.20;0.20;;;;;;;15.17;100.00;99101.38;4969251;28;20055;-76
2023/07/15 00:49:14;;;;;;;0.20;0.20;;;;;;;15.17;100.00;99101.38;4981336;28;20050;-76
2023/07/15 00:51:44;;;;;;;0.20;0.20;;;;;;;15.20;100.00;99104.63;5000340;28;20065;-75
2023/07/15 00:54:13;;;;;;;0.20;0.20;;;;;;;15.23;100.00;99104.81;5000022;28;20069;-76
2023/07/15 00:56:41;;;;;;;0.20;0.20;;;;;;;15.15;100.00;99084.38;4950992;28;20063;-76
2023/07/15 00:59:09;;;;;;;0.20;0.20;;;;;;;15.24;100.00;99089.91;4982853;28;20042;-76
2023/07/15 01:01:37;;;;;;;0.20;0.20;;;;;;;15.25;100.00;99094.28;4987666;28;20054;-76
2023/07/15 01:04:06;;;;;;;0.20;0.20;;;;;;;15.29;100.00;99091.66;4985016;28;20518;-75
2023/07/15 01:06:35;;;;;;;0.20;0.20;;;;;;;15.30;100.00;99085.84;4988322;28;20050;-76
2023/07/15 01:09:07;;;;;;;0.20;0.20;;;;;;;15.29;99.39;99080.63;4986033;28;20073;-77
2023/07/15 01:11:34;;;;;;;0.20;0.20;;;;;;;15.23;99.80;99077.25;4984592;28;20034;-76
2023/07/15 01:14:00;;;;;;;0.20;0.20;;;;;;;15.23;100.00;99081.94;5000280;28;20042;-76
2023/07/15 01:16:28;;;;;;;0.10;0.10;;;;;;;15.23;100.00;99085.53;4985302;28;20050;-75
2023/07/15 01:18:56;;;;;;;0.20;0.20;;;;;;;15.26;100.00;99078.53;4985314;28;20073;-75
2023/07/15 01:21:28;;;;;;;0.20;0.20;;;;;;;15.30;100.00;99083.09;4976387;28;20066;-76
2023/07/15 01:23:55;;;;;;;0.20;0.20;;;;;;;15.29;100.00;99075.13;4968502;28;20078;-75
2023/07/15 01:26:22;;;;;;;0.20;0.20;;;;;;;15.26;99.65;99082.13;4984654;28;20069;-77
2023/07/15 01:28:51;;;;;;;0.20;0.20;;;;;;;15.24;99.55;99075.31;4986683;28;20058;-74
2023/07/15 01:31:19;;;;;;;0.20;0.20;;;;;;;15.24;99.74;99076.13;4985883;28;20565;-76
2023/07/15 01:33:47;;;;;;;0.20;0.20;;;;;;;15.22;98.15;99072.06;4984521;28;20059;-76
2023/07/15 01:36:13;;;;;;;0.20;0.20;;;;;;;15.11;97.29;99058.63;4953472;28;20050;-76
2023/07/15 01:38:41;;;;;;;0.20;0.20;;;;;;;15.15;97.55;99069.81;4984926;28;20046;-76
2023/07/15 01:41:10;;;;;;;0.20;0.20;;;;;;;15.14;97.13;99068.19;4964035;28;20057;-76
2023/07/15 01:43:36;;;;;;;0.20;0.20;;;;;;;15.16;97.08;99061.22;4985282;28;20066;-75
2023/07/15 01:46:03;;;;;;;0.20;0.20;;;;;;;15.17;96.14;99075.78;4974650;28;20507;-76
2023/07/15 01:48:29;;;;;;;0.32;0.20;;;;;;;15.15;95.81;99073.38;4985379;28;20058;-77
2023/07/15 01:50:56;;;;;;;0.20;0.20;;;;;;;15.12;95.92;99070.44;4982263;28;20050;-76
2023/07/15 01:53:22;;;;;;;0.15;0.15;;;;;;;15.05;95.01;99067.34;4984351;28;20506;-76
2023/07/15 01:55:48;;;;;;;0.20;0.20;;;;;;;15.03;95.33;99076.75;4983365;28;20644;-76
2023/07/15 01:58:16;;;;;;;0.20;0.20;;;;;;;15.05;95.08;99070.09;4951818;28;20146;-75
2023/07/15 02:00:43;;;;;;;0.20;0.20;;;;;;;15.05;95.37;99070.94;4984037;28;20586;-76
2023/07/15 02:03:09;;;;;;;0.20;0.20;;;;;;;15.09;95.40;99069.16;4985830;28;20065;-76
2023/07/15 02:05:36;;;;;;;0.20;0.20;;;;;;;15.07;94.87;99065.91;4984194;28;20544;-76
2023/07/15 02:08:02;;;;;;;0.20;0.20;;;;;;;15.03;94.30;99067.69;4981639;28;20044;-76
2023/07/15 02:10:30;;;;;;;0.20;0.20;;;;;;;14.97;94.47;99064.28;4980864;28;20055;-76
2023/07/15 02:12:57;;;;;;;0.20;0.20;;;;;;;14.94;94.49;99064.94;4965483;28;20515;-76
2023/07/15 02:15:25;;;;;;;0.20;0.20;;;;;;;14.88;94.00;99058.78;4966444;28;20482;-77
2023/07/15 02:17:51;;;;;;;0.20;0.20;;;;;;;14.89;94.04;99071.41;4984152;28;20496;-75
2023/07/15 02:20:19;;;;;;;0.20;0.20;;;;;;;14.90;94.19;99063.94;4986814;28;20061;-75
2023/07/15 02:22:45;;;;;;;0.20;0.20;;;;;;;14.86;94.12;99071.22;4985728;28;20116;-76
2023/07/15 02:25:11;;;;;;;0.20;0.20;;;;;;;14.84;94.13;99068.81;4964907;28;20058;-76
2023/07/15 02:27:38;;;;;;;0.20;0.20;;;;;;;14.84;94.39;99071.56;4973583;28;20403;-77
2023/07/15 02:30:08;;;;;;;0.20;0.20;;;;;;;14.82;94.28;99075.75;4986228;28;20050;-75
2023/07/15 02:32:39;;;;;;;0.20;0.20;;;;;;;14.77;94.45;99073.16;4967566;28;20046;-76
2023/07/15 02:35:08;;;;;;;0.20;0.20;;;;;;;14.76;93.99;99086.09;4984649;28;20588;-77
2023/07/15 02:37:35;;;;;;;0.20;0.20;;;;;;;14.77;94.35;99084.97;4983880;28;20051;-77
2023/07/15 02:40:03;;;;;;;0.20;0.20;;;;;;;14.76;94.56;99077.84;4983393;28;20077;-76
2023/07/15 02:42:33;;;;;;;0.22;0.22;;;;;;;14.78;94.44;99085.78;4983352;28;20057;-75
2023/07/15 02:45:00;;;;;;;0.22;0.22;;;;;;;14.75;94.50;99076.22;4962824;28;20232;-75
2023/07/15 02:47:27;;;;;;;0.20;0.20;;;;;;;14.73;94.32;99082.03;4963831;28;20053;-75
2023/07/15 02:49:55;;;;;;;0.20;0.20;;;;;;;14.71;94.72;99073.28;4950216;28;20050;-76
2023/07/15 02:52:21;;;;;;;0.20;0.20;;;;;;;14.73;95.16;99084.00;4982637;28;20054;-75
2023/07/15 02:54:47;;;;;;;0.20;0.20;;;;;;;14.75;95.18;99081.72;4982618;28;20058;-76
2023/07/15 02:57:13;;;;;;;0.20;0.20;;;;;;;14.80;95.64;99089.81;4982612;28;20521;-76
2023/07/15 02:59:39;;;;;;;0.20;0.20;;;;;;;14.82;95.90;99089.50;4984051;28;20047;-75
2023/07/15 03:02:07;;;;;;;0.20;0.20;;;;;;;14.81;96.00;99085.16;4965578;28;20562;-76
2023/07/15 03:04:38;;;;;;;0.20;0.20;;;;;;;14.81;95.67;99085.94;4980158;28;20051;-77
2023/07/15 03:07:15;;;;;;;0.30;0.30;;;;;;;14.78;96.12;99083.84;4971620;28;20054;-76
2023/07/15 03:09:42;;;;;;;0.20;0.20;;;;;;;14.80;96.15;99089.81;4983575;28;20078;-77
2023/07/15 03:12:08;;;;;;;0.20;0.20;;;;;;;14.78;96.02;99085.78;5000844;28;20068;-77
2023/07/15 03:14:35;;;;;;;0.30;0.30;;;;;;;14.76;96.88;99088.84;4982910;28;20047;-77
2023/07/15 03:17:01;;;;;;;0.30;0.30;;;;;;;14.80;97.33;99092.56;4982846;28;20549;-77
2023/07/15 03:19:30;;;;;;;0.20;0.20;;;;;;;14.77;97.22;99095.19;4999226;28;20686;-76
2023/07/15 03:21:56;;;;;;;0.20;0.20;;;;;;;14.75;97.48;99087.22;4982465;28;20146;-76
2023/07/15 03:24:25;;;;;;;0.20;0.20;;;;;;;14.80;97.46;99086.28;4962993;28;20046;-77
2023/07/15 03:26:52;;;;;;;0.20;0.20;;;;;;;14.87;97.61;99094.84;4982274;28;20050;-77
2023/07/15 03:29:18;;;;;;;0.20;0.20;;;;;;;14.92;97.65;99100.22;4984073;28;20174;-77
2023/07/15 03:31:46;;;;;;;0.20;0.20;;;;;;;14.97;97.66;99102.81;4999088;28;20054;-77
2023/07/15 03:34:13;;;;;;;0.20;0.20;;;;;;;15.01;97.18;99101.03;4967841;28;20054;-77
2023/07/15 03:36:39;;;;;;;0.20;0.20;;;;;;;15.00;96.73;99096.66;4982988;28;20140;-77
2023/07/15 03:39:05;;;;;;;0.20;0.20;;;;;;;14.98;96.84;99101.69;4965778;28;20699;-76
2023/07/15 03:41:35;;;;;;;0.20;0.20;;;;;;;15.03;97.49;99104.28;4982513;28;20093;-76
2023/07/15 03:44:01;;;;;;;0.20;0.20;;;;;;;15.02;97.02;99090.84;4967334;28;20425;-76
2023/07/15 03:46:27;;;;;;;0.20;0.20;;;;;;;15.06;97.28;99102.00;4983070;28;20136;-76
2023/07/15 03:48:53;;;;;;;0.20;0.20;;;;;;;15.09;96.87;99106.88;4949843;28;20128;-77
2023/07/15 03:51:20;;;;;;;0.20;0.20;;;;;;;15.11;96.63;99104.63;4983309;28;20062;-76
2023/07/15 03:53:46;;;;;;;0.20;0.20;;;;;;;15.16;96.94;99107.22;4963336;28;20475;-76
2023/07/15 03:56:12;;;;;;;0.20;0.20;;;;;;;15.20;96.86;99108.19;4948196;28;20427;-76
2023/07/15 03:58:40;;;;;;;0.20;0.20;;;;;;;15.20;96.95;99107.38;4966278;28;20046;-76
2023/07/15 04:01:06;;;;;;;;;;;;;;;15.26;96.75;99108.84;4943097;28;20046;-76
2023/07/15 04:03:32;;;;;;;0.20;0.20;;;;;;;15.23;95.96;99104.81;4998701;28;19933;-76
2023/07/15 04:05:58;;;;;;;0.20;0.20;;;;;;;15.22;95.65;99114.19;4965141;28;20042;-78
2023/07/15 04:08:27;;;;;;;0.20;0.20;;;;;;;15.17;95.77;99117.09;4957727;28;20050;-77
2023/07/15 04:10:53;;;;;;;0.20;0.20;;;;;;;15.15;95.62;99113.84;4977675;28;20153;-76
2023/07/15 04:13:19;;;;;;;0.20;0.20;;;;;;;15.16;96.15;99119.03;4982068;28;20050;-77
2023/07/15 04:15:47;;;;;;;0.20;0.20;;;;;;;15.17;96.35;99108.81;4967068;28;20050;-77
2023/07/15 04:18:13;;;;;;;0.20;0.20;;;;;;;15.16;96.50;99116.28;4968630;28;20038;-77
2023/07/15 04:20:39;;;;;;;0.20;0.20;;;;;;;15.21;96.64;99117.25;4982553;28;20096;-76
2023/07/15 04:23:06;;;;;;;0.20;0.20;;;;;;;15.22;96.45;99116.13;4999469;28;20053;-76
2023/07/15 04:25:32;;;;;;;0.20;0.20;;;;;;;15.26;96.60;99117.09;4994861;28;20054;-76
2023/07/15 04:27:59;;;;;;;0.20;0.20;;;;;;;15.29;96.35;99124.69;4985258;28;20042;-77
2023/07/15 04:30:25;;;;;;;0.20;0.20;;;;;;;15.30;96.46;99118.88;4978608;28;20039;-78
2023/07/15 04:32:52;;;;;;;0.20;0.20;;;;;;;15.28;96.90;99117.56;4977190;28;20523;-75
2023/07/15 04:35:19;;;;;;;0.20;0.20;;;;;;;15.22;97.83;99116.13;4960495;28;20046;-76
2023/07/15 04:37:47;;;;;;;0.20;0.20;;;;;;;15.17;98.55;99125.34;4985802;28;20053;-77
2023/07/15 04:40:14;;;;;;;0.20;0.20;;;;;;;15.12;98.74;99131.81;4984592;28;20133;-76
2023/07/15 04:42:40;;;;;;;0.20;0.20;;;;;;;15.06;99.07;99119.34;5002907;28;20046;-77
2023/07/15 04:45:07;;;;;;;0.20;0.20;;;;;;;15.07;99.01;99129.22;4980937;28;20054;-76
2023/07/15 04:47:34;;;;;;;0.20;0.20;;;;;;;15.10;98.83;99125.03;4987959;28;20081;-77
2023/07/15 04:50:02;;;;;;;0.20;0.20;;;;;;;15.15;98.99;99133.13;5004565;28;20070;-77
2023/07/15 04:52:29;;;;;;;0.20;0.20;;;;;;;15.18;98.79;99129.72;4971462;28;20104;-76
2023/07/15 04:54:55;;;;;;;0.20;0.20;;;;;;;15.18;98.75;99132.47;4987641;28;20038;-76
2023/07/15 04:57:22;;;;;;;0.20;0.20;;;;;;;15.15;98.56;99135.88;4998529;28;20417;-77
2023/07/15 04:59:49;;;;;;;0.20;0.20;;;;;;;15.13;98.26;99144.44;4985992;28;20065;-76
2023/07/15 05:02:16;;;;;;;0.20;0.20;;;;;;;15.09;98.23;99137.19;4989457;28;20537;-76
2023/07/15 05:04:42;;;;;;;0.20;0.20;;;;;;;15.09;97.77;99151.72;4987655;28;20478;-76
2023/07/15 05:07:10;;;;;;;0.20;0.20;;;;;;;15.07;97.45;99150.44;4968976;28;20626;-77
2023/07/15 05:09:35;;;;;;;;;;;;;;;15.02;97.75;99146.69;4986281;28;20483;-77
2023/07/15 05:12:01;;;;;;;0.20;0.20;;;;;;;15.04;97.57;99154.66;4980967;28;19965;-77
2023/07/15 05:14:28;;;;;;;0.22;0.22;;;;;;;15.09;97.57;99145.44;4967362;28;20636;-76
2023/07/15 05:16:54;;;;;;;0.20;0.20;;;;;;;15.14;97.30;99142.50;4952114;28;20070;-75
2023/07/15 05:19:21;;;;;;;0.20;0.20;;;;;;;15.15;96.82;99139.44;4981199;28;20047;-76
2023/07/15 05:21:47;;;;;;;0.20;0.20;;;;;;;15.24;97.14;99142.22;4975470;28;20144;-77
2023/07/15 05:24:15;;;;;;;0.20;0.20;;;;;;;15.36;96.48;99140.75;4984560;28;20046;-76
2023/07/15 05:26:41;;;;;;;0.20;0.20;;;;;;;15.45;95.99;99145.16;4987004;28;20150;-77
2023/07/15 05:29:08;;;;;;;0.20;0.20;;;;;;;15.48;95.51;99149.19;4986883;28;20042;-77
2023/07/15 05:31:34;;;;;;;0.20;0.20;;;;;;;15.48;95.42;99143.69;4949005;28;20141;-76
2023/07/15 05:34:00;;;;;;;0.20;0.20;;;;;;;15.54;95.18;99144.31;4969397;28;20040;-76
2023/07/15 05:36:27;;;;;;;0.20;0.20;;;;;;;15.55;94.82;99155.03;4952848;28;20121;-76
2023/07/15 05:38:53;;;;;;;0.30;0.30;;;;;;;15.59;94.64;99147.72;4985647;28;20046;-76
2023/07/15 05:41:21;;;;;;;0.30;0.30;;;;;;;15.67;94.63;99157.13;4986317;28;20058;-76
2023/07/15 05:43:47;;;;;;;0.30;0.30;;;;;;;15.73;94.59;99150.31;4987160;28;20105;-76
2023/07/15 05:46:13;;;;;;;0.30;0.30;;;;;;;15.85;93.75;99157.94;5001528;28;20054;-76
2023/07/15 05:48:39;;;;;;;0.30;0.30;;;;;;;15.89;93.46;99160.88;4985565;28;20133;-76
2023/07/15 05:51:06;;;;;;;0.20;0.20;;;;;;;15.92;92.99;99160.22;4989820;28;20109;-76
2023/07/15 05:53:32;;;;;;;0.20;0.20;;;;;;;15.88;92.69;99160.03;4979113;28;20093;-76
2023/07/15 05:55:59;;;;;;;0.30;0.30;;;;;;;15.86;92.42;99161.50;4980477;28;20137;-76
2023/07/15 05:58:26;;;;;;;0.20;0.20;;;;;;;15.85;92.60;99166.22;4962589;28;20054;-76
2023/07/15 06:00:53;;;;;;;0.20;0.20;;;;;;;15.86;92.84;99172.50;4963455;28;20043;-75
2023/07/15 06:03:19;;;;;;;0.20;0.20;;;;;;;15.80;92.14;99169.13;4974676;28;20137;-76
2023/07/15 06:05:45;;;;;;;0.20;0.20;;;;;;;15.68;91.82;99169.78;5003250;28;20072;-76
2023/07/15 06:08:12;;;;;;;0.20;0.20;;;;;;;15.60;92.12;99167.81;4991080;28;20061;-76
2023/07/15 06:10:42;;;;;;;0.20;0.20;;;;;;;15.58;92.34;99176.41;4972328;28;20077;-76
2023/07/15 06:13:09;;;;;;;0.20;0.20;;;;;;;15.70;92.15;99181.28;4953351;28;20149;-75
2023/07/15 06:15:38;;;;;;;0.30;0.30;;;;;;;15.86;92.05;99176.09;4991138;28;20085;-77
2023/07/15 06:18:05;;;;;;;0.20;0.20;;;;;;;16.02;91.34;99179.19;4987061;28;20045;-77
2023/07/15 06:20:31;;;;;;;0.30;0.30;;;;;;;16.11;90.95;99173.66;5003003;28;20058;-76
2023/07/15 06:22:57;;;;;;;0.20;0.20;;;;;;;16.15;90.34;99179.31;4985505;28;20042;-76
2023/07/15 06:25:24;;;;;;;0.20;0.20;;;;;;;16.05;90.62;99174.97;4967437;28;20521;-77
2023/07/15 06:27:51;;;;;;;0.20;0.20;;;;;;;16.03;90.43;99182.75;4967432;28;20050;-77
2023/07/15 06:30:17;;;;;;;0.30;0.30;;;;;;;16.01;91.13;99185.81;4968887;28;20057;-76
2023/07/15 06:32:45;;;;;;;0.20;0.20;;;;;;;15.99;90.97;99184.53;4983423;28;20058;-76
2023/07/15 06:35:11;;;;;;;0.20;0.20;;;;;;;15.95;91.08;99197.34;4983398;28;20161;-76
2023/07/15 06:37:38;;;;;;;0.20;0.20;;;;;;;15.88;91.16;99190.34;5002388;28;20050;-76
2023/07/15 06:40:07;;;;;;;0.20;0.20;;;;;;;15.91;91.36;99196.38;4984983;28;20568;-77
2023/07/15 06:42:34;;;;;;;0.20;0.20;;;;;;;15.86;91.27;99197.31;4984455;28;20161;-77
2023/07/15 06:45:01;;;;;;;0.20;0.20;;;;;;;15.82;91.39;99202.66;4964063;28;20054;-76
2023/07/15 06:47:27;;;;;;;0.20;0.20;;;;;;;15.80;91.88;99196.66;4980272;28;20043;-77
2023/07/15 06:49:54;;;;;;;0.20;0.20;;;;;;;15.71;91.74;99187.63;4963744;28;20138;-76
2023/07/15 06:52:21;;;;;;;0.20;0.20;;;;;;;15.76;92.06;99192.94;4974597;28;20064;-76
2023/07/15 06:54:47;;;;;;;0.20;0.20;;;;;;;15.84;92.05;99205.13;4983901;28;20054;-76
2023/07/15 06:57:13;;;;;;;0.20;0.20;;;;;;;15.83;92.34;99201.53;4997693;28;20046;-76
2023/07/15 06:59:41;;;;;;;0.20;0.20;;;;;;;15.83;92.41;99209.00;4983815;28;20078;-76
2023/07/15 07:02:07;;;;;;;0.20;0.20;;;;;;;15.88;92.31;99208.84;4957990;28;20528;-76
2023/07/15 07:04:33;;;;;;;0.20;0.20;;;;;;;15.87;92.38;99213.56;4979697;28;20046;-76
2023/07/15 07:07:01;;;;;;;0.30;0.30;;;;;;;15.90;92.13;99217.63;4972722;28;20692;-77
2023/07/15 07:09:27;;;;;;;0.20;0.20;;;;;;;15.84;91.98;99208.69;4991670;28;20050;-77
2023/07/15 07:11:53;;;;;;;0.20;0.20;;;;;;;15.87;92.48;99219.06;4982719;28;20050;-77
2023/07/15 07:14:20;;;;;;;0.20;0.20;;;;;;;15.87;93.01;99219.06;4985317;28;20134;-76
2023/07/15 07:16:46;;;;;;;0.20;0.20;;;;;;;15.94;93.47;99223.28;4976576;28;20062;-76
2023/07/15 07:19:12;;;;;;;0.20;0.20;;;;;;;15.98;93.09;99218.75;4964962;28;20057;-78
2023/07/15 07:21:39;;;;;;;0.20;0.20;;;;;;;16.12;92.97;99226.88;4964436;28;20046;-77
2023/07/15 07:24:07;;;;;;;0.20;0.20;;;;;;;16.18;92.91;99233.81;4978728;28;20104;-77
2023/07/15 07:26:33;;;;;;;0.20;0.20;;;;;;;16.20;92.50;99237.06;4966679;28;20483;-77
2023/07/15 07:28:59;;;;;;;0.20;0.20;;;;;;;16.22;93.12;99236.75;4983094;28;20247;-77
2023/07/15 07:31:25;;;;;;;0.20;0.20;;;;;;;16.26;92.66;99232.19;4983280;28;20042;-77
2023/07/15 07:33:51;;;;;;;0.30;0.30;;;;;;;16.18;92.28;99224.75;4965989;28;20141;-77
2023/07/15 07:36:17;;;;;;;0.20;0.20;;;;;;;16.14;91.95;99238.38;4985805;28;20053;-77
2023/07/15 07:38:44;;;;;;;0.20;0.20;;;;;;;16.07;92.52;99238.84;4967127;28;20153;-75
2023/07/15 07:41:13;;;;;;;0.20;0.20;;;;;;;16.06;92.37;99234.47;4952213;28;20089;-76
2023/07/15 07:43:40;;;;;;;0.20;0.20;;;;;;;16.07;92.24;99236.09;4984730;28;20058;-76
2023/07/15 07:46:08;;;;;;;0.30;0.30;;;;;;;16.09;91.89;99235.78;5000127;28;20046;-76
2023/07/15 07:48:34;;;;;;;0.20;0.20;;;;;;;16.23;91.27;99243.88;4983024;28;20050;-76
2023/07/15 07:51:01;;;;;;;0.20;0.20;;;;;;;16.15;90.87;99217.94;4982018;28;20058;-77
2023/07/15 07:53:30;;;;;;;0.30;0.30;;;;;;;16.40;90.62;99241.09;4984926;28;20050;-77
2023/07/15 07:55:58;;;;;;;0.20;0.20;;;;;;;16.61;89.57;99245.91;4967464;28;20054;-77
2023/07/15 07:58:28;;;;;;;0.30;0.30;;;;;;;16.82;89.06;99246.00;4997770;28;20050;-77
2023/07/15 08:00:54;;;;;;;;;;;;;;;17.01;88.41;99250.31;4999882;28;20050;-77
2023/07/15 08:03:20;;;;;;;0.30;0.30;;;;;;;17.19;87.06;99245.53;4984417;28;19932;-77
2023/07/15 08:05:48;;;;;;;0.30;0.30;;;;;;;17.29;85.15;99242.41;4983617;28;20096;-77
2023/07/15 08:08:15;;;;;;;0.30;0.30;;;;;;;17.33;84.30;99250.84;4950025;28;20154;-77
2023/07/15 08:10:41;;;;;;;0.30;0.30;;;;;;;17.46;83.38;99251.75;4984802;28;20542;-77
2023/07/15 08:13:08;;;;;;;0.30;0.30;;;;;;;17.52;82.67;99246.84;4983011;28;20042;-78
2023/07/15 08:15:37;;;;;;;0.30;0.30;;;;;;;17.64;82.53;99246.91;4951237;28;20050;-77
2023/07/15 08:18:04;;;;;;;0.30;0.30;;;;;;;17.80;81.40;99240.78;4982849;28;20394;-77
2023/07/15 08:20:31;;;;;;;0.30;0.30;;;;;;;17.93;80.70;99242.44;4976445;28;20165;-77
2023/07/15 08:22:58;;;;;;;0.30;0.30;;;;;;;18.07;80.63;99241.38;4940675;28;20661;-78
2023/07/15 08:25:24;;;;;;;0.30;0.30;;;;;;;18.35;80.06;99247.16;4982236;28;20526;-77
2023/07/15 08:27:51;;;;;;;0.30;0.30;;;;;;;18.56;78.79;99236.00;4991045;28;20483;-77
2023/07/15 08:30:18;;;;;;;0.30;0.30;;;;;;;18.73;77.77;99236.97;4979424;28;20050;-77
2023/07/15 08:32:45;;;;;;;0.30;0.30;;;;;;;19.03;76.95;99238.78;4968367;28;20034;-77
2023/07/15 08:35:12;;;;;;;0.30;0.30;;;;;;;19.39;75.84;99239.91;4998727;28;20054;-77
2023/07/15 08:37:38;;;;;;;0.30;0.30;;;;;;;19.67;73.90;99239.19;4977848;28;20061;-77
2023/07/15 08:40:08;;;;;;;0.30;0.30;;;;;;;19.69;72.69;99237.69;4982342;28;20042;-79
2023/07/15 08:42:35;;;;;;;0.30;0.30;;;;;;;19.77;73.12;99244.25;4985644;28;20100;-78
2023/07/15 08:45:02;;;;;;;0.30;0.30;;;;;;;19.79;72.93;99241.94;4985395;28;20043;-75
2023/07/15 08:47:30;;;;;;;0.30;0.30;;;;;;;19.77;73.31;99238.69;4984881;28;20055;-76
2023/07/15 08:50:01;;;;;;;0.30;0.30;;;;;;;19.74;73.14;99244.91;4981600;28;20047;-76
2023/07/15 08:52:30;;;;;;;0.30;0.30;;;;;;;19.68;72.75;99243.56;4979579;28;20062;-76
2023/07/15 08:54:56;;;;;;;0.20;0.20;;;;;;;19.51;73.16;99241.84;4962548;28;20415;-76
2023/07/15 08:57:24;;;;;;;0.20;0.20;;;;;;;19.30;73.59;99234.50;4961197;28;20083;-76
2023/07/15 08:59:56;;;;;;;0.20;0.20;;;;;;;19.21;74.39;99245.69;4985375;28;20138;-76
2023/07/15 09:02:22;;;;;;;0.20;0.20;;;;;;;19.08;74.16;99238.53;4981267;28;20514;-77
2023/07/15 09:04:49;;;;;;;0.30;0.30;;;;;;;18.93;74.56;99251.88;4984410;28;20153;-76
2023/07/15 09:07:24;;;;;;;0.30;0.30;;;;;;;18.76;75.28;99249.31;4983295;28;20393;-75
2023/07/15 09:09:50;;;;;;;0.30;0.30;;;;;;;18.79;75.08;99255.00;5000193;28;20042;-76
2023/07/15 09:12:17;;;;;;;0.30;0.30;;;;;;;18.92;74.65;99249.47;4984406;28;20042;-76
2023/07/15 09:14:46;;;;;;;0.30;0.30;;;;;;;19.02;74.28;99251.81;4980904;28;20042;-76
2023/07/15 09:17:16;;;;;;;0.30;0.30;;;;;;;19.05;74.10;99253.91;4968445;28;20589;-74
2023/07/15 09:19:43;;;;;;;0.30;0.30;;;;;;;19.04;73.73;99254.25;4963310;28;20074;-75
2023/07/15 09:22:09;;;;;;;0.30;0.30;;;;;;;18.94;73.73;99255.47;4977156;28;20050;-75
2023/07/15 09:24:38;;;;;;;0.30;0.30;;;;;;;18.85;74.02;99248.06;4980333;28;20077;-74
2023/07/15 09:27:05;;;;;;;0.20;0.20;;;;;;;18.74;74.17;99260.75;4984218;28;20054;-75
2023/07/15 09:29:32;;;;;;;0.20;0.20;;;;;;;18.54;74.90;99262.44;4969227;28;20052;-75
2023/07/15 09:31:59;;;;;;;0.20;0.20;;;;;;;18.40;76.24;99269.09;4988192;28;20101;-75
2023/07/15 09:34:25;;;;;;;0.30;0.30;;;;;;;18.38;76.35;99259.50;4986754;28;20046;-76
2023/07/15 09:36:52;;;;;;;0.20;0.20;;;;;;;18.21;76.91;99266.00;4984304;28;20050;-75
2023/07/15 09:39:22;;;;;;;0.20;0.20;;;;;;;18.02;76.96;99258.16;4984454;28;20552;-75
2023/07/15 09:42:00;;;;;;;0.30;0.30;;;;;;;17.85;78.21;99269.00;4985681;28;20101;-75
2023/07/15 09:44:34;;;;;;;0.20;0.20;;;;;;;17.80;78.34;99269.22;4982213;28;20050;-75
2023/07/15 09:47:02;;;;;;;0.30;0.30;;;;;;;17.84;79.29;99272.94;4979081;28;20057;-75
2023/07/15 09:49:29;;;;;;;0.28;0.28;;;;;;;17.97;78.03;99273.00;4968413;28;20061;-75
2023/07/15 09:51:56;;;;;;;0.30;0.30;;;;;;;18.10;77.54;99271.13;4962336;28;20149;-75
2023/07/15 09:54:25;;;;;;;0.20;0.20;;;;;;;18.31;77.14;99267.56;4946014;28;20046;-75
2023/07/15 09:56:54;;;;;;;0.20;0.20;;;;;;;18.41;76.41;99267.94;4629622;28;10000002;-75
2023/07/15 09:59:22;;;;;;;0.30;0.30;;;;;;;18.64;75.83;99270.28;4980219;28;20141;-75
2023/07/15 10:01:53;;;;;;;0.30;0.30;;;;;;;19.00;74.49;99267.97;4982156;28;20050;-75
2023/07/15 10:04:25;;;;;;;0.30;0.30;;;;;;;19.29;72.74;99268.13;4982819;28;20081;-75
2023/07/15 10:06:51;;;;;;;0.30;0.30;;;;;;;19.56;72.29;99263.81;4983334;28;20093;-75
2023/07/15 10:09:19;;;;;;;0.32;0.32;;;;;;;19.95;70.77;99261.44;4956472;28;20047;-75
2023/07/15 10:11:46;;;;;;;0.40;0.40;;;;;;;20.46;68.58;99260.09;4984185;28;20527;-75
2023/07/15 10:14:13;;;;;;;0.40;0.40;;;;;;;20.75;67.23;99255.28;4979900;28;20054;-75
2023/07/15 10:16:40;;;;;;;0.30;0.30;;;;;;;20.98;66.04;99257.47;4997353;28;20058;-75
2023/07/15 10:19:39;;;;;;;0.30;0.30;;;;;;;21.05;65.08;99257.63;4981447;28;20047;-75
2023/07/15 10:22:07;;;;;;;0.30;0.30;;;;;;;21.09;65.17;99257.72;4981618;28;20046;-75
2023/07/15 10:24:34;;;;;;;0.30;0.30;;;;;;;21.14;63.94;99259.44;4982866;28;20042;-76
2023/07/15 10:27:03;;;;;;;0.30;0.30;;;;;;;20.99;63.95;99258.28;4982448;28;20518;-74
2023/07/15 10:29:30;;;;;;;0.30;0.30;;;;;;;20.86;64.40;99258.38;4965218;28;20054;-74
2023/07/15 10:32:13;;;;;;;0.30;0.30;;;;;;;20.59;64.78;99254.44;4984053;28;20188;-75
2023/07/15 10:34:41;;;;;;;0.30;0.30;;;;;;;20.40;65.41;99253.97;4976052;28;20486;-74
2023/07/15 10:37:13;;;;;;;0.22;0.22;;;;;;;20.04;66.57;99252.97;4970776;28;20054;-74
2023/07/15 10:39:39;;;;;;;0.20;0.20;;;;;;;19.44;68.66;99252.72;4967655;28;20058;-75
2023/07/15 10:42:10;;;;;;;0.20;0.20;;;;;;;18.78;70.77;99250.59;4967569;28;20053;-75
2023/07/15 10:44:41;;;;;;;0.20;0.20;;;;;;;18.39;71.83;99264.69;4954921;28;20046;-75
2023/07/15 10:47:08;;;;;;;0.20;0.20;;;;;;;18.19;73.20;99271.09;4974856;28;20657;-75
2023/07/15 10:49:36;;;;;;;0.20;0.20;;;;;;;17.99;74.17;99263.22;4980392;28;20054;-75
2023/07/15 10:52:04;;;;;;;0.20;0.20;;;;;;;17.77;75.80;99267.13;4978894;28;20082;-75
2023/07/15 10:54:30;;;;;;;;;;;;;;;17.67;76.17;99271.13;4978406;28;20046;-74
2023/07/15 10:56:57;;;;;;;0.20;0.20;;;;;;;17.63;76.92;99261.06;4979406;28;19926;-74
2023/07/15 10:59:31;;;;;;;0.28;0.28;;;;;;;17.71;77.25;99272.06;4978399;28;20046;-76
2023/07/15 11:01:59;;;;;;;0.38;0.30;;;;;;;17.99;76.54;99254.94;4978243;28;20133;-75
2023/07/15 11:04:25;;;;;;;;;;;;;;;18.38;75.23;99268.63;4982843;28;20518;-74
2023/07/15 11:06:57;;;;;;;0.30;0.30;;;;;;;18.79;73.63;99262.47;4972042;28;20025;-75
2023/07/15 11:09:24;;;;;;;0.40;0.40;;;;;;;19.26;71.72;99261.28;4977308;28;20054;-74
2023/07/15 11:11:50;;;;;;;0.40;0.40;;;;;;;19.69;70.47;99267.34;4984053;28;20123;-74
2023/07/15 11:14:21;;;;;;;0.32;0.32;;;;;;;20.18;68.96;99262.84;4985260;28;20061;-75
2023/07/15 11:16:49;;;;;;;0.40;0.40;;;;;;;20.62;67.48;99259.31;4996090;28;20522;-75
2023/07/15 11:19:15;;;;;;;0.40;0.40;;;;;;;21.01;65.88;99256.75;4962464;28;20042;-74
2023/07/15 11:21:42;;;;;;;0.40;0.40;;;;;;;22.08;62.71;99250.44;4975520;28;20130;-74
2023/07/15 11:24:12;;;;;;;0.40;0.40;;;;;;;22.41;59.74;99248.28;4978321;28;20055;-74
2023/07/15 11:26:38;;;;;;;0.47;0.40;;;;;;;22.25;59.46;99251.97;4991659;28;20051;-75
2023/07/15 11:29:13;;;;;;;0.40;0.40;;;;;;;22.16;59.45;99251.38;4975328;28;20050;-74
2023/07/15 11:31:40;;;;;;;0.90;0.90;;;;;;;23.33;55.49;99255.06;4971328;28;20058;-75
2023/07/15 11:34:09;;;;;;;0.50;0.50;;;;;;;24.18;52.00;99245.47;4957896;28;20631;-75
2023/07/15 11:36:36;;;;;;;0.40;0.40;;;;;;;24.55;51.45;99254.28;4968708;28;20058;-74